sensor_id;sensor_type;location;lat;lon;timestamp;P1;durP1;ratioP1;P2;durP2;ratioP2
84723;SDS011;74944;52.322;16.918;2024-03-02T00:00:37;93.15;;;48.22;;
84723;SDS011;74944;52.322;16.918;2024-03-02T00:03:23;96.53;;;48.55;;
84723;SDS011;74944;52.322;16.918;2024-03-02T00:05:50;91.75;;;47.15;;
84723;SDS011;74944;52.322;16.918;2024-03-02T00:08:21;87.22;;;45.92;;
84723;SDS011;74944;52.322;16.918;2024-03-02T00:10:50;97.78;;;49.28;;
84723;SDS011;74944;52.322;16.918;2024-03-02T00:13:16;88.95;;;46.90;;
84723;SDS011;74944;52.322;16.918;2024-03-02T00:15:46;95.85;;;48.55;;
84723;SDS011;74944;52.322;16.918;2024-03-02T00:18:19;93.70;;;46.65;;
84723;SDS011;74944;52.322;16.918;2024-03-02T00:20:56;95.18;;;48.25;;
84723;SDS011;74944;52.322;16.918;2024-03-02T00:23:22;96.15;;;47.58;;
84723;SDS011;74944;52.322;16.918;2024-03-02T00:25:50;94.57;;;46.92;;
84723;SDS011;74944;52.322;16.918;2024-03-02T00:28:21;100.13;;;47.33;;
84723;SDS011;74944;52.322;16.918;2024-03-02T00:33:30;96.63;;;46.97;;
84723;SDS011;74944;52.322;16.918;2024-03-02T00:35:58;91.78;;;45.72;;
84723;SDS011;74944;52.322;16.918;2024-03-02T00:38:25;90.18;;;44.67;;
84723;SDS011;74944;52.322;16.918;2024-03-02T00:40:52;92.75;;;47.03;;
84723;SDS011;74944;52.322;16.918;2024-03-02T00:46:12;97.72;;;48.88;;
84723;SDS011;74944;52.322;16.918;2024-03-02T00:48:44;100.40;;;49.47;;
84723;SDS011;74944;52.322;16.918;2024-03-02T00:51:14;103.22;;;49.83;;
84723;SDS011;74944;52.322;16.918;2024-03-02T00:53:39;108.40;;;50.15;;
84723;SDS011;74944;52.322;16.918;2024-03-02T00:56:06;95.05;;;47.10;;
84723;SDS011;74944;52.322;16.918;2024-03-02T00:58:34;97.32;;;47.60;;
84723;SDS011;74944;52.322;16.918;2024-03-02T01:01:00;100.47;;;46.65;;
84723;SDS011;74944;52.322;16.918;2024-03-02T01:03:26;102.20;;;47.92;;
84723;SDS011;74944;52.322;16.918;2024-03-02T01:05:52;94.50;;;46.80;;
84723;SDS011;74944;52.322;16.918;2024-03-02T01:08:18;94.35;;;46.95;;
84723;SDS011;74944;52.322;16.918;2024-03-02T01:10:44;94.93;;;44.92;;
84723;SDS011;74944;52.322;16.918;2024-03-02T01:13:09;100.32;;;48.58;;
84723;SDS011;74944;52.322;16.918;2024-03-02T01:15:35;92.90;;;44.85;;
84723;SDS011;74944;52.322;16.918;2024-03-02T01:18:01;91.30;;;43.97;;
84723;SDS011;74944;52.322;16.918;2024-03-02T01:20:27;94.57;;;45.38;;
84723;SDS011;74944;52.322;16.918;2024-03-02T01:22:52;97.00;;;45.42;;
84723;SDS011;74944;52.322;16.918;2024-03-02T01:25:18;96.32;;;45.90;;
84723;SDS011;74944;52.322;16.918;2024-03-02T01:27:44;91.25;;;43.05;;
84723;SDS011;74944;52.322;16.918;2024-03-02T01:30:10;93.03;;;43.45;;
84723;SDS011;74944;52.322;16.918;2024-03-02T01:32:37;93.50;;;44.15;;
84723;SDS011;74944;52.322;16.918;2024-03-02T01:35:04;99.53;;;45.90;;
84723;SDS011;74944;52.322;16.918;2024-03-02T01:37:32;91.43;;;43.60;;
84723;SDS011;74944;52.322;16.918;2024-03-02T01:39:58;87.78;;;42.97;;
84723;SDS011;74944;52.322;16.918;2024-03-02T01:42:24;90.75;;;45.13;;
84723;SDS011;74944;52.322;16.918;2024-03-02T01:44:50;90.05;;;42.13;;
84723;SDS011;74944;52.322;16.918;2024-03-02T01:47:16;86.45;;;42.78;;
84723;SDS011;74944;52.322;16.918;2024-03-02T01:49:42;94.20;;;41.83;;
84723;SDS011;74944;52.322;16.918;2024-03-02T01:52:08;81.47;;;40.67;;
84723;SDS011;74944;52.322;16.918;2024-03-02T01:54:33;77.47;;;40.38;;
84723;SDS011;74944;52.322;16.918;2024-03-02T01:56:59;91.20;;;41.90;;
84723;SDS011;74944;52.322;16.918;2024-03-02T01:59:26;82.30;;;41.25;;
84723;SDS011;74944;52.322;16.918;2024-03-02T02:01:52;84.90;;;42.33;;
84723;SDS011;74944;52.322;16.918;2024-03-02T02:04:18;85.72;;;41.25;;
84723;SDS011;74944;52.322;16.918;2024-03-02T02:06:46;82.45;;;40.33;;
84723;SDS011;74944;52.322;16.918;2024-03-02T02:09:12;79.80;;;38.67;;
84723;SDS011;74944;52.322;16.918;2024-03-02T02:11:38;86.90;;;41.92;;
84723;SDS011;74944;52.322;16.918;2024-03-02T02:14:05;87.88;;;42.08;;
84723;SDS011;74944;52.322;16.918;2024-03-02T02:16:31;82.57;;;39.05;;
84723;SDS011;74944;52.322;16.918;2024-03-02T02:18:57;90.32;;;42.45;;
84723;SDS011;74944;52.322;16.918;2024-03-02T02:21:22;87.18;;;43.17;;
84723;SDS011;74944;52.322;16.918;2024-03-02T02:23:51;87.72;;;41.60;;
84723;SDS011;74944;52.322;16.918;2024-03-02T02:26:16;80.50;;;38.78;;
84723;SDS011;74944;52.322;16.918;2024-03-02T02:28:42;84.03;;;39.90;;
84723;SDS011;74944;52.322;16.918;2024-03-02T02:31:14;80.32;;;38.35;;
84723;SDS011;74944;52.322;16.918;2024-03-02T02:33:41;81.95;;;36.63;;
84723;SDS011;74944;52.322;16.918;2024-03-02T02:36:07;84.68;;;40.70;;
84723;SDS011;74944;52.322;16.918;2024-03-02T02:38:33;84.75;;;39.58;;
84723;SDS011;74944;52.322;16.918;2024-03-02T02:41:03;74.00;;;36.08;;
84723;SDS011;74944;52.322;16.918;2024-03-02T02:43:29;74.90;;;35.83;;
84723;SDS011;74944;52.322;16.918;2024-03-02T02:48:30;76.82;;;36.35;;
84723;SDS011;74944;52.322;16.918;2024-03-02T02:50:55;73.68;;;34.90;;
84723;SDS011;74944;52.322;16.918;2024-03-02T02:53:21;72.53;;;34.45;;
84723;SDS011;74944;52.322;16.918;2024-03-02T02:55:47;74.32;;;35.70;;
84723;SDS011;74944;52.322;16.918;2024-03-02T02:58:12;73.63;;;35.28;;
84723;SDS011;74944;52.322;16.918;2024-03-02T03:00:40;75.65;;;36.05;;
84723;SDS011;74944;52.322;16.918;2024-03-02T03:03:05;79.28;;;35.78;;
84723;SDS011;74944;52.322;16.918;2024-03-02T03:05:31;75.45;;;35.67;;
84723;SDS011;74944;52.322;16.918;2024-03-02T03:07:57;78.50;;;35.78;;
84723;SDS011;74944;52.322;16.918;2024-03-02T03:10:23;68.38;;;34.10;;
84723;SDS011;74944;52.322;16.918;2024-03-02T03:12:51;72.43;;;31.67;;
84723;SDS011;74944;52.322;16.918;2024-03-02T03:15:17;74.45;;;35.00;;
84723;SDS011;74944;52.322;16.918;2024-03-02T03:17:42;70.35;;;34.85;;
84723;SDS011;74944;52.322;16.918;2024-03-02T03:20:08;70.78;;;33.30;;
84723;SDS011;74944;52.322;16.918;2024-03-02T03:22:38;72.18;;;33.47;;
84723;SDS011;74944;52.322;16.918;2024-03-02T03:25:04;67.63;;;33.15;;
84723;SDS011;74944;52.322;16.918;2024-03-02T03:27:30;66.10;;;29.92;;
84723;SDS011;74944;52.322;16.918;2024-03-02T03:29:56;66.13;;;30.80;;
84723;SDS011;74944;52.322;16.918;2024-03-02T03:32:21;70.03;;;32.22;;
84723;SDS011;74944;52.322;16.918;2024-03-02T03:34:47;69.57;;;30.40;;
84723;SDS011;74944;52.322;16.918;2024-03-02T03:37:13;65.03;;;31.27;;
84723;SDS011;74944;52.322;16.918;2024-03-02T03:39:39;64.88;;;32.85;;
84723;SDS011;74944;52.322;16.918;2024-03-02T03:42:05;66.10;;;33.08;;
84723;SDS011;74944;52.322;16.918;2024-03-02T03:44:31;65.05;;;31.35;;
84723;SDS011;74944;52.322;16.918;2024-03-02T03:46:56;63.03;;;31.33;;
84723;SDS011;74944;52.322;16.918;2024-03-02T03:49:23;63.60;;;32.10;;
84723;SDS011;74944;52.322;16.918;2024-03-02T03:51:49;59.13;;;29.85;;
84723;SDS011;74944;52.322;16.918;2024-03-02T03:54:15;71.88;;;33.30;;
84723;SDS011;74944;52.322;16.918;2024-03-02T03:56:40;62.42;;;30.23;;
84723;SDS011;74944;52.322;16.918;2024-03-02T03:59:06;63.78;;;30.38;;
84723;SDS011;74944;52.322;16.918;2024-03-02T04:01:31;63.85;;;29.92;;
84723;SDS011;74944;52.322;16.918;2024-03-02T04:03:57;64.00;;;30.13;;
84723;SDS011;74944;52.322;16.918;2024-03-02T04:06:23;63.83;;;29.17;;
84723;SDS011;74944;52.322;16.918;2024-03-02T04:08:49;63.67;;;28.60;;
84723;SDS011;74944;52.322;16.918;2024-03-02T04:11:14;61.75;;;29.10;;
84723;SDS011;74944;52.322;16.918;2024-03-02T04:13:40;64.47;;;30.08;;
84723;SDS011;74944;52.322;16.918;2024-03-02T04:16:06;64.88;;;30.95;;
84723;SDS011;74944;52.322;16.918;2024-03-02T04:18:31;54.92;;;28.98;;
84723;SDS011;74944;52.322;16.918;2024-03-02T04:21:00;63.80;;;29.95;;
84723;SDS011;74944;52.322;16.918;2024-03-02T04:23:26;61.88;;;29.63;;
84723;SDS011;74944;52.322;16.918;2024-03-02T04:25:52;60.78;;;29.30;;
84723;SDS011;74944;52.322;16.918;2024-03-02T04:28:17;63.45;;;29.50;;
84723;SDS011;74944;52.322;16.918;2024-03-02T04:30:43;59.58;;;28.55;;
84723;SDS011;74944;52.322;16.918;2024-03-02T04:33:09;60.78;;;28.65;;
84723;SDS011;74944;52.322;16.918;2024-03-02T04:35:35;57.30;;;27.77;;
84723;SDS011;74944;52.322;16.918;2024-03-02T04:38:01;57.28;;;28.33;;
84723;SDS011;74944;52.322;16.918;2024-03-02T04:40:27;61.53;;;28.55;;
84723;SDS011;74944;52.322;16.918;2024-03-02T04:42:53;63.88;;;30.42;;
84723;SDS011;74944;52.322;16.918;2024-03-02T04:45:19;64.45;;;29.30;;
84723;SDS011;74944;52.322;16.918;2024-03-02T04:47:44;64.57;;;29.08;;
84723;SDS011;74944;52.322;16.918;2024-03-02T04:50:10;62.92;;;29.33;;
84723;SDS011;74944;52.322;16.918;2024-03-02T04:52:36;56.42;;;28.33;;
84723;SDS011;74944;52.322;16.918;2024-03-02T04:55:02;60.20;;;29.45;;
84723;SDS011;74944;52.322;16.918;2024-03-02T04:57:46;64.07;;;29.98;;
84723;SDS011;74944;52.322;16.918;2024-03-02T05:00:13;69.18;;;30.75;;
84723;SDS011;74944;52.322;16.918;2024-03-02T05:02:38;63.28;;;29.25;;
84723;SDS011;74944;52.322;16.918;2024-03-02T05:05:04;64.72;;;28.73;;
84723;SDS011;74944;52.322;16.918;2024-03-02T05:07:30;60.35;;;30.17;;
84723;SDS011;74944;52.322;16.918;2024-03-02T05:09:56;58.55;;;29.48;;
84723;SDS011;74944;52.322;16.918;2024-03-02T05:12:21;62.67;;;28.85;;
84723;SDS011;74944;52.322;16.918;2024-03-02T05:17:32;59.25;;;27.83;;
84723;SDS011;74944;52.322;16.918;2024-03-02T05:19:58;62.13;;;28.95;;
84723;SDS011;74944;52.322;16.918;2024-03-02T05:22:24;64.20;;;30.67;;
84723;SDS011;74944;52.322;16.918;2024-03-02T05:24:50;58.63;;;27.90;;
84723;SDS011;74944;52.322;16.918;2024-03-02T05:27:15;59.78;;;28.60;;
84723;SDS011;74944;52.322;16.918;2024-03-02T05:29:41;57.88;;;28.48;;
84723;SDS011;74944;52.322;16.918;2024-03-02T05:32:06;60.30;;;28.75;;
84723;SDS011;74944;52.322;16.918;2024-03-02T05:34:32;58.58;;;28.63;;
84723;SDS011;74944;52.322;16.918;2024-03-02T05:37:00;63.05;;;30.10;;
84723;SDS011;74944;52.322;16.918;2024-03-02T05:39:26;59.22;;;29.70;;
84723;SDS011;74944;52.322;16.918;2024-03-02T05:41:52;65.38;;;29.40;;
84723;SDS011;74944;52.322;16.918;2024-03-02T05:44:18;58.60;;;28.17;;
84723;SDS011;74944;52.322;16.918;2024-03-02T05:46:44;57.50;;;28.95;;
84723;SDS011;74944;52.322;16.918;2024-03-02T05:49:11;59.70;;;28.88;;
84723;SDS011;74944;52.322;16.918;2024-03-02T05:51:37;55.35;;;27.20;;
84723;SDS011;74944;52.322;16.918;2024-03-02T05:54:03;57.33;;;28.20;;
84723;SDS011;74944;52.322;16.918;2024-03-02T05:56:28;63.53;;;30.73;;
84723;SDS011;74944;52.322;16.918;2024-03-02T05:58:54;62.40;;;30.52;;
84723;SDS011;74944;52.322;16.918;2024-03-02T06:01:38;59.40;;;28.60;;
84723;SDS011;74944;52.322;16.918;2024-03-02T06:04:08;69.05;;;30.92;;
84723;SDS011;74944;52.322;16.918;2024-03-02T06:06:34;63.72;;;30.98;;
84723;SDS011;74944;52.322;16.918;2024-03-02T06:09:00;63.95;;;30.58;;
84723;SDS011;74944;52.322;16.918;2024-03-02T06:11:27;64.43;;;29.75;;
84723;SDS011;74944;52.322;16.918;2024-03-02T06:13:53;63.13;;;29.42;;
84723;SDS011;74944;52.322;16.918;2024-03-02T06:16:19;64.18;;;30.17;;
84723;SDS011;74944;52.322;16.918;2024-03-02T06:18:45;63.70;;;28.60;;
84723;SDS011;74944;52.322;16.918;2024-03-02T06:21:10;61.75;;;29.80;;
84723;SDS011;74944;52.322;16.918;2024-03-02T06:23:36;63.22;;;30.42;;
84723;SDS011;74944;52.322;16.918;2024-03-02T06:26:01;57.35;;;29.40;;
84723;SDS011;74944;52.322;16.918;2024-03-02T06:28:28;59.45;;;29.98;;
84723;SDS011;74944;52.322;16.918;2024-03-02T06:30:54;65.32;;;29.55;;
84723;SDS011;74944;52.322;16.918;2024-03-02T06:33:19;65.30;;;30.92;;
84723;SDS011;74944;52.322;16.918;2024-03-02T06:35:45;65.22;;;30.67;;
84723;SDS011;74944;52.322;16.918;2024-03-02T06:38:11;62.67;;;29.65;;
84723;SDS011;74944;52.322;16.918;2024-03-02T06:40:37;61.40;;;29.42;;
84723;SDS011;74944;52.322;16.918;2024-03-02T06:43:06;61.60;;;29.40;;
84723;SDS011;74944;52.322;16.918;2024-03-02T06:45:31;59.42;;;28.00;;
84723;SDS011;74944;52.322;16.918;2024-03-02T06:47:59;58.92;;;29.13;;
84723;SDS011;74944;52.322;16.918;2024-03-02T06:50:25;54.03;;;27.92;;
84723;SDS011;74944;52.322;16.918;2024-03-02T06:52:51;54.78;;;28.83;;
84723;SDS011;74944;52.322;16.918;2024-03-02T06:55:16;58.22;;;27.92;;
84723;SDS011;74944;52.322;16.918;2024-03-02T06:57:42;56.38;;;28.80;;
84723;SDS011;74944;52.322;16.918;2024-03-02T07:00:08;55.03;;;28.55;;
84723;SDS011;74944;52.322;16.918;2024-03-02T07:02:34;56.22;;;28.77;;
84723;SDS011;74944;52.322;16.918;2024-03-02T07:05:01;60.35;;;28.45;;
84723;SDS011;74944;52.322;16.918;2024-03-02T07:07:27;56.22;;;26.75;;
84723;SDS011;74944;52.322;16.918;2024-03-02T07:09:53;55.35;;;28.15;;
84723;SDS011;74944;52.322;16.918;2024-03-02T07:12:19;55.80;;;26.85;;
84723;SDS011;74944;52.322;16.918;2024-03-02T07:14:44;52.22;;;26.17;;
84723;SDS011;74944;52.322;16.918;2024-03-02T07:17:22;54.80;;;28.02;;
84723;SDS011;74944;52.322;16.918;2024-03-02T07:19:47;57.65;;;26.90;;
84723;SDS011;74944;52.322;16.918;2024-03-02T07:22:14;53.88;;;26.13;;
84723;SDS011;74944;52.322;16.918;2024-03-02T07:24:40;54.55;;;26.75;;
84723;SDS011;74944;52.322;16.918;2024-03-02T07:27:07;57.25;;;27.05;;
84723;SDS011;74944;52.322;16.918;2024-03-02T07:29:36;50.38;;;26.00;;
84723;SDS011;74944;52.322;16.918;2024-03-02T07:32:01;51.80;;;25.42;;
84723;SDS011;74944;52.322;16.918;2024-03-02T07:34:27;53.03;;;26.65;;
84723;SDS011;74944;52.322;16.918;2024-03-02T07:36:53;53.65;;;25.00;;
84723;SDS011;74944;52.322;16.918;2024-03-02T07:39:18;46.78;;;25.15;;
84723;SDS011;74944;52.322;16.918;2024-03-02T07:41:45;51.75;;;26.77;;
84723;SDS011;74944;52.322;16.918;2024-03-02T07:44:11;49.25;;;25.52;;
84723;SDS011;74944;52.322;16.918;2024-03-02T07:46:40;51.38;;;25.67;;
84723;SDS011;74944;52.322;16.918;2024-03-02T07:49:09;50.50;;;26.35;;
84723;SDS011;74944;52.322;16.918;2024-03-02T07:51:35;51.42;;;25.83;;
84723;SDS011;74944;52.322;16.918;2024-03-02T07:54:01;52.10;;;24.88;;
84723;SDS011;74944;52.322;16.918;2024-03-02T07:56:27;47.60;;;24.70;;
84723;SDS011;74944;52.322;16.918;2024-03-02T07:58:53;49.05;;;25.83;;
84723;SDS011;74944;52.322;16.918;2024-03-02T08:01:20;48.45;;;24.67;;
84723;SDS011;74944;52.322;16.918;2024-03-02T08:03:45;51.20;;;25.70;;
84723;SDS011;74944;52.322;16.918;2024-03-02T08:06:16;53.88;;;27.70;;
84723;SDS011;74944;52.322;16.918;2024-03-02T08:08:42;46.78;;;25.10;;
84723;SDS011;74944;52.322;16.918;2024-03-02T08:11:08;48.58;;;24.83;;
84723;SDS011;74944;52.322;16.918;2024-03-02T08:13:34;49.30;;;26.77;;
84723;SDS011;74944;52.322;16.918;2024-03-02T08:16:00;50.35;;;26.15;;
84723;SDS011;74944;52.322;16.918;2024-03-02T08:18:29;49.60;;;25.00;;
84723;SDS011;74944;52.322;16.918;2024-03-02T08:20:55;51.67;;;25.48;;
84723;SDS011;74944;52.322;16.918;2024-03-02T08:23:20;45.67;;;24.55;;
84723;SDS011;74944;52.322;16.918;2024-03-02T08:25:46;47.10;;;24.42;;
84723;SDS011;74944;52.322;16.918;2024-03-02T08:28:12;49.17;;;24.42;;
84723;SDS011;74944;52.322;16.918;2024-03-02T08:30:38;44.72;;;25.48;;
84723;SDS011;74944;52.322;16.918;2024-03-02T08:33:03;45.42;;;24.23;;
84723;SDS011;74944;52.322;16.918;2024-03-02T08:35:29;43.80;;;23.63;;
84723;SDS011;74944;52.322;16.918;2024-03-02T08:37:57;45.55;;;24.05;;
84723;SDS011;74944;52.322;16.918;2024-03-02T08:40:23;41.47;;;23.88;;
84723;SDS011;74944;52.322;16.918;2024-03-02T08:42:49;48.67;;;23.70;;
84723;SDS011;74944;52.322;16.918;2024-03-02T08:45:15;42.38;;;23.05;;
84723;SDS011;74944;52.322;16.918;2024-03-02T08:47:43;42.42;;;22.80;;
84723;SDS011;74944;52.322;16.918;2024-03-02T08:50:09;41.97;;;22.15;;
84723;SDS011;74944;52.322;16.918;2024-03-02T08:52:34;39.65;;;22.00;;
84723;SDS011;74944;52.322;16.918;2024-03-02T08:55:01;43.92;;;23.90;;
84723;SDS011;74944;52.322;16.918;2024-03-02T08:57:26;40.08;;;22.88;;
84723;SDS011;74944;52.322;16.918;2024-03-02T08:59:52;42.22;;;22.50;;
84723;SDS011;74944;52.322;16.918;2024-03-02T09:02:17;43.65;;;23.38;;
84723;SDS011;74944;52.322;16.918;2024-03-02T09:04:43;40.67;;;23.63;;
84723;SDS011;74944;52.322;16.918;2024-03-02T09:07:09;38.78;;;21.85;;
84723;SDS011;74944;52.322;16.918;2024-03-02T09:09:34;40.35;;;22.70;;
84723;SDS011;74944;52.322;16.918;2024-03-02T09:12:00;42.40;;;22.33;;
84723;SDS011;74944;52.322;16.918;2024-03-02T09:14:26;39.63;;;21.55;;
84723;SDS011;74944;52.322;16.918;2024-03-02T09:16:52;37.08;;;22.85;;
84723;SDS011;74944;52.322;16.918;2024-03-02T09:19:18;43.22;;;22.40;;
84723;SDS011;74944;52.322;16.918;2024-03-02T09:21:43;37.53;;;21.48;;
84723;SDS011;74944;52.322;16.918;2024-03-02T09:24:09;42.72;;;22.73;;
84723;SDS011;74944;52.322;16.918;2024-03-02T09:26:35;43.78;;;22.92;;
84723;SDS011;74944;52.322;16.918;2024-03-02T09:29:01;42.22;;;22.80;;
84723;SDS011;74944;52.322;16.918;2024-03-02T09:31:26;38.33;;;22.70;;
84723;SDS011;74944;52.322;16.918;2024-03-02T09:33:52;44.05;;;22.75;;
84723;SDS011;74944;52.322;16.918;2024-03-02T09:36:18;38.13;;;22.20;;
84723;SDS011;74944;52.322;16.918;2024-03-02T09:38:45;39.92;;;20.83;;
84723;SDS011;74944;52.322;16.918;2024-03-02T09:41:10;39.50;;;22.08;;
84723;SDS011;74944;52.322;16.918;2024-03-02T09:43:37;35.65;;;21.02;;
84723;SDS011;74944;52.322;16.918;2024-03-02T09:46:03;37.70;;;21.92;;
84723;SDS011;74944;52.322;16.918;2024-03-02T09:48:29;38.03;;;21.95;;
84723;SDS011;74944;52.322;16.918;2024-03-02T09:50:55;38.80;;;21.92;;
84723;SDS011;74944;52.322;16.918;2024-03-02T09:53:21;33.70;;;20.90;;
84723;SDS011;74944;52.322;16.918;2024-03-02T09:55:48;38.80;;;21.48;;
84723;SDS011;74944;52.322;16.918;2024-03-02T09:58:15;35.95;;;20.13;;
84723;SDS011;74944;52.322;16.918;2024-03-02T10:00:41;33.22;;;20.17;;
84723;SDS011;74944;52.322;16.918;2024-03-02T10:03:11;35.60;;;21.75;;
84723;SDS011;74944;52.322;16.918;2024-03-02T10:05:38;35.92;;;22.08;;
84723;SDS011;74944;52.322;16.918;2024-03-02T10:08:03;43.08;;;21.35;;
84723;SDS011;74944;52.322;16.918;2024-03-02T10:10:36;36.08;;;21.15;;
84723;SDS011;74944;52.322;16.918;2024-03-02T10:13:06;37.92;;;21.85;;
84723;SDS011;74944;52.322;16.918;2024-03-02T10:15:33;36.63;;;20.75;;
84723;SDS011;74944;52.322;16.918;2024-03-02T10:17:59;36.83;;;22.23;;
84723;SDS011;74944;52.322;16.918;2024-03-02T10:20:25;35.85;;;20.90;;
84723;SDS011;74944;52.322;16.918;2024-03-02T10:22:57;38.50;;;20.40;;
84723;SDS011;74944;52.322;16.918;2024-03-02T10:25:38;37.92;;;21.48;;
84723;SDS011;74944;52.322;16.918;2024-03-02T10:28:04;38.90;;;22.33;;
84723;SDS011;74944;52.322;16.918;2024-03-02T10:30:31;34.15;;;20.70;;
84723;SDS011;74944;52.322;16.918;2024-03-02T10:32:57;40.17;;;23.45;;
84723;SDS011;74944;52.322;16.918;2024-03-02T10:35:22;34.08;;;21.92;;
84723;SDS011;74944;52.322;16.918;2024-03-02T10:37:49;39.40;;;21.60;;
84723;SDS011;74944;52.322;16.918;2024-03-02T10:40:15;37.42;;;21.42;;
84723;SDS011;74944;52.322;16.918;2024-03-02T10:42:41;33.25;;;19.77;;
84723;SDS011;74944;52.322;16.918;2024-03-02T10:45:09;38.17;;;22.67;;
84723;SDS011;74944;52.322;16.918;2024-03-02T10:47:38;36.72;;;21.20;;
84723;SDS011;74944;52.322;16.918;2024-03-02T10:50:04;37.75;;;21.30;;
84723;SDS011;74944;52.322;16.918;2024-03-02T10:52:37;35.88;;;21.95;;
84723;SDS011;74944;52.322;16.918;2024-03-02T10:55:04;37.80;;;21.20;;
84723;SDS011;74944;52.322;16.918;2024-03-02T11:00:20;33.83;;;20.52;;
84723;SDS011;74944;52.322;16.918;2024-03-02T11:02:55;34.97;;;20.08;;
84723;SDS011;74944;52.322;16.918;2024-03-02T11:05:26;32.50;;;20.55;;
84723;SDS011;74944;52.322;16.918;2024-03-02T11:07:56;35.63;;;21.08;;
84723;SDS011;74944;52.322;16.918;2024-03-02T11:10:27;35.05;;;21.05;;
84723;SDS011;74944;52.322;16.918;2024-03-02T11:12:59;33.40;;;20.00;;
84723;SDS011;74944;52.322;16.918;2024-03-02T11:15:27;37.80;;;20.42;;
84723;SDS011;74944;52.322;16.918;2024-03-02T11:17:53;34.97;;;21.13;;
84723;SDS011;74944;52.322;16.918;2024-03-02T11:20:20;39.33;;;22.23;;
84723;SDS011;74944;52.322;16.918;2024-03-02T11:22:46;34.38;;;20.02;;
84723;SDS011;74944;52.322;16.918;2024-03-02T11:25:25;36.97;;;22.40;;
84723;SDS011;74944;52.322;16.918;2024-03-02T11:32:59;41.03;;;23.50;;
84723;SDS011;74944;52.322;16.918;2024-03-02T11:35:26;38.17;;;23.42;;
84723;SDS011;74944;52.322;16.918;2024-03-02T11:37:54;36.28;;;22.02;;
84723;SDS011;74944;52.322;16.918;2024-03-02T11:40:30;40.47;;;25.27;;
84723;SDS011;74944;52.322;16.918;2024-03-02T11:42:56;42.60;;;24.38;;
84723;SDS011;74944;52.322;16.918;2024-03-02T11:45:25;41.10;;;23.88;;
84723;SDS011;74944;52.322;16.918;2024-03-02T11:47:55;42.13;;;24.60;;
84723;SDS011;74944;52.322;16.918;2024-03-02T11:52:56;39.95;;;24.40;;
84723;SDS011;74944;52.322;16.918;2024-03-02T11:55:25;42.33;;;24.48;;
84723;SDS011;74944;52.322;16.918;2024-03-02T11:57:54;40.53;;;24.77;;
84723;SDS011;74944;52.322;16.918;2024-03-02T12:00:20;41.58;;;23.80;;
84723;SDS011;74944;52.322;16.918;2024-03-02T12:02:46;43.20;;;24.35;;
84723;SDS011;74944;52.322;16.918;2024-03-02T12:05:24;39.88;;;24.63;;
84723;SDS011;74944;52.322;16.918;2024-03-02T12:07:54;43.70;;;25.27;;
84723;SDS011;74944;52.322;16.918;2024-03-02T12:10:24;39.92;;;25.13;;
84723;SDS011;74944;52.322;16.918;2024-03-02T12:13:00;39.88;;;25.27;;
84723;SDS011;74944;52.322;16.918;2024-03-02T12:15:32;40.10;;;25.15;;
84723;SDS011;74944;52.322;16.918;2024-03-02T12:18:05;38.72;;;24.30;;
84723;SDS011;74944;52.322;16.918;2024-03-02T12:20:32;42.08;;;24.48;;
84723;SDS011;74944;52.322;16.918;2024-03-02T12:22:59;42.33;;;24.63;;
84723;SDS011;74944;52.322;16.918;2024-03-02T12:25:27;42.10;;;24.98;;
84723;SDS011;74944;52.322;16.918;2024-03-02T12:27:59;40.08;;;24.45;;
84723;SDS011;74944;52.322;16.918;2024-03-02T12:30:30;39.85;;;24.73;;
84723;SDS011;74944;52.322;16.918;2024-03-02T12:32:56;41.28;;;24.38;;
84723;SDS011;74944;52.322;16.918;2024-03-02T12:35:22;40.53;;;24.42;;
84723;SDS011;74944;52.322;16.918;2024-03-02T12:37:51;39.72;;;24.48;;
84723;SDS011;74944;52.322;16.918;2024-03-02T12:40:18;40.05;;;24.95;;
84723;SDS011;74944;52.322;16.918;2024-03-02T12:42:45;38.63;;;23.77;;
84723;SDS011;74944;52.322;16.918;2024-03-02T12:45:12;36.05;;;22.05;;
84723;SDS011;74944;52.322;16.918;2024-03-02T12:47:39;35.05;;;21.90;;
84723;SDS011;74944;52.322;16.918;2024-03-02T12:50:07;37.80;;;22.83;;
84723;SDS011;74944;52.322;16.918;2024-03-02T12:52:34;35.42;;;21.60;;
84723;SDS011;74944;52.322;16.918;2024-03-02T12:55:03;38.88;;;22.60;;
84723;SDS011;74944;52.322;16.918;2024-03-02T12:57:31;36.60;;;21.70;;
84723;SDS011;74944;52.322;16.918;2024-03-02T13:00:02;36.92;;;22.20;;
84723;SDS011;74944;52.322;16.918;2024-03-02T13:02:36;32.58;;;19.38;;
84723;SDS011;74944;52.322;16.918;2024-03-02T13:05:06;30.65;;;18.85;;
84723;SDS011;74944;52.322;16.918;2024-03-02T13:10:03;31.10;;;18.92;;
84723;SDS011;74944;52.322;16.918;2024-03-02T13:12:30;27.70;;;16.30;;
84723;SDS011;74944;52.322;16.918;2024-03-02T13:14:57;26.58;;;17.38;;
84723;SDS011;74944;52.322;16.918;2024-03-02T13:17:24;30.52;;;17.75;;
84723;SDS011;74944;52.322;16.918;2024-03-02T13:19:52;30.30;;;18.05;;
84723;SDS011;74944;52.322;16.918;2024-03-02T13:22:19;29.73;;;17.60;;
84723;SDS011;74944;52.322;16.918;2024-03-02T13:24:46;31.60;;;20.05;;
84723;SDS011;74944;52.322;16.918;2024-03-02T13:27:12;35.03;;;21.50;;
84723;SDS011;74944;52.322;16.918;2024-03-02T13:29:38;34.60;;;23.33;;
84723;SDS011;74944;52.322;16.918;2024-03-02T13:32:06;35.78;;;21.85;;
84723;SDS011;74944;52.322;16.918;2024-03-02T13:34:32;37.22;;;22.73;;
84723;SDS011;74944;52.322;16.918;2024-03-02T13:36:58;36.92;;;22.92;;
84723;SDS011;74944;52.322;16.918;2024-03-02T13:39:26;36.92;;;22.88;;
84723;SDS011;74944;52.322;16.918;2024-03-02T13:41:52;36.25;;;22.08;;
84723;SDS011;74944;52.322;16.918;2024-03-02T13:44:23;39.95;;;24.20;;
84723;SDS011;74944;52.322;16.918;2024-03-02T13:46:49;36.83;;;21.45;;
84723;SDS011;74944;52.322;16.918;2024-03-02T13:49:16;42.05;;;22.23;;
84723;SDS011;74944;52.322;16.918;2024-03-02T13:51:42;35.80;;;22.35;;
84723;SDS011;74944;52.322;16.918;2024-03-02T13:54:09;38.63;;;22.73;;
84723;SDS011;74944;52.322;16.918;2024-03-02T13:56:35;38.47;;;22.40;;
84723;SDS011;74944;52.322;16.918;2024-03-02T13:59:04;39.90;;;23.33;;
84723;SDS011;74944;52.322;16.918;2024-03-02T14:01:31;38.67;;;22.85;;
84723;SDS011;74944;52.322;16.918;2024-03-02T14:03:58;36.83;;;22.20;;
84723;SDS011;74944;52.322;16.918;2024-03-02T14:06:24;39.35;;;21.95;;
84723;SDS011;74944;52.322;16.918;2024-03-02T14:08:52;36.70;;;22.30;;
84723;SDS011;74944;52.322;16.918;2024-03-02T14:11:21;35.50;;;21.30;;
84723;SDS011;74944;52.322;16.918;2024-03-02T14:13:46;36.58;;;21.33;;
84723;SDS011;74944;52.322;16.918;2024-03-02T14:16:19;38.03;;;22.58;;
84723;SDS011;74944;52.322;16.918;2024-03-02T14:18:44;38.28;;;22.85;;
84723;SDS011;74944;52.322;16.918;2024-03-02T14:21:10;35.42;;;21.33;;
84723;SDS011;74944;52.322;16.918;2024-03-02T14:23:36;37.70;;;22.67;;
84723;SDS011;74944;52.322;16.918;2024-03-02T14:26:02;36.35;;;22.98;;
84723;SDS011;74944;52.322;16.918;2024-03-02T14:28:27;36.42;;;21.50;;
84723;SDS011;74944;52.322;16.918;2024-03-02T14:30:53;38.75;;;22.20;;